American Star — WDD7311 — position and weather

sailwx.info

Track history (hours):
 
Tides and Currents Weather Stations Pressure Air Temp Water Temp Dewpoint Dewpoint Depression Visibility Wind Speed Wind Dir Waves Ship Positions

American Star

Owner: American Cruise Lines, Inc, Delmar, DE. More information available from US FCC via Universal Licensing System and Coast Guard Vessel Documentation Center.

Last reported at 2014-Oct-18 19:20 UTC. Time now 2014-Oct-24 09:35 UTC.
Position N 40°48' W 073°59'.

Length 60 m; draft 2.1 m.

Type: Ship (hazmat cat C). MMSI: 367184740.

Date/timePositionNaut miles runAvg speedWind from/ knotsBaromVisibWave heightAir tempDewpointWater temp
2014-Oct-18 19:20N 40°48' W 073°59'7 9.4
2014-Oct-18 18:33N 40°41' W 074°02'4 3.3
2014-Oct-18 17:28N 40°45' W 074°01'0 0.0
2014-Oct-18 16:28N 40°45' W 074°01'0 0.0
2014-Oct-18 15:31N 40°45' W 074°01'0 0.0
2014-Oct-18 13:25N 40°45' W 074°01'0 0.0
2014-Oct-18 12:28N 40°45' W 074°01'0 0.0
2014-Oct-18 11:31N 40°45' W 074°01'0 0.0
2014-Oct-18 10:31N 40°45' W 074°01'0 0.0
2014-Oct-18 09:31N 40°45' W 074°01'0 0.0
2014-Oct-18 08:31N 40°45' W 074°01'0 0.0
2014-Oct-18 07:28N 40°45' W 074°01'0 0.0
2014-Oct-18 06:28N 40°45' W 074°01'0 0.0
2014-Oct-18 05:28N 40°45' W 074°01'0 0.0
2014-Oct-18 04:28N 40°45' W 074°01'0 0.0
2014-Oct-18 03:04N 40°45' W 074°01'0 0.0
2014-Oct-18 02:13N 40°45' W 074°01'0 0.0
2014-Oct-18 01:25N 40°45' W 074°01'0 0.0
2014-Oct-18 00:22N 40°45' W 074°01'0 0.0
2014-Oct-17 23:28N 40°45' W 074°01'0 0.0
2014-Oct-17 22:28N 40°45' W 074°01'0 0.0
2014-Oct-17 21:28N 40°45' W 074°01'0 0.0
2014-Oct-17 20:31N 40°45' W 074°01'0 0.0
2014-Oct-17 19:31N 40°45' W 074°01'0 0.0
2014-Oct-17 18:31N 40°45' W 074°01'0 0.0
2014-Oct-17 17:07N 40°45' W 074°01'0 0.0
2014-Oct-17 16:31N 40°45' W 074°01'  
2014-Oct-12 23:32N 41°14' W 073°57'23 0.8
2014-Oct-11 19:27N 40°50' W 073°57'8 8.6
2014-Oct-11 18:33N 40°43' W 074°01'2 1.5
2014-Oct-11 17:31N 40°45' W 074°01'0 0.0
2014-Oct-11 16:31N 40°45' W 074°01'0 0.0
2014-Oct-11 15:31N 40°45' W 074°01'0 0.0
2014-Oct-11 14:31N 40°45' W 074°01'0 0.0
2014-Oct-11 13:28N 40°45' W 074°01'0 0.0
2014-Oct-11 12:31N 40°45' W 074°01'0 0.0
2014-Oct-11 11:31N 40°45' W 074°01'0 0.0
2014-Oct-11 10:31N 40°45' W 074°01'0 0.0
2014-Oct-11 09:31N 40°45' W 074°01'0 0.0
2014-Oct-11 08:31N 40°45' W 074°01'0 0.0
2014-Oct-11 07:31N 40°45' W 074°01'0 0.0
2014-Oct-11 06:31N 40°45' W 074°01'0 0.0
2014-Oct-11 05:31N 40°45' W 074°01'0 0.0
2014-Oct-11 04:31N 40°45' W 074°01'0 0.0
2014-Oct-11 03:31N 40°45' W 074°01'0 0.0
2014-Oct-11 02:31N 40°45' W 074°01'0 0.0
2014-Oct-11 01:31N 40°45' W 074°01'0 0.0
2014-Oct-11 00:31N 40°45' W 074°01'0 0.0
2014-Oct-10 23:31N 40°45' W 074°01'0 0.0
2014-Oct-10 22:31N 40°45' W 074°01'3 3.1
2014-Oct-10 21:33N 40°42' W 074°00'2713.1
2014-Oct-10 19:28N 41°09' W 073°54'  
Track history (hours):
 
Tides and Currents Weather Stations Pressure Air Temp Water Temp Dewpoint Dewpoint Depression Visibility Wind Speed Wind Dir Waves Ship Positions

American Star

Owner: American Cruise Lines, Inc, Delmar, DE. More information available from US FCC via Universal Licensing System and Coast Guard Vessel Documentation Center.

Last reported at 2014-Oct-18 19:20 UTC. Time now 2014-Oct-24 09:35 UTC.
Position N 40°48' W 073°59'.

Length 60 m; draft 2.1 m.

Type: Ship (hazmat cat C). MMSI: 367184740.

Date/timePositionNaut miles runAvg speedWind from/ knotsBaromVisibWave heightAir tempDewpointWater temp
2014-Oct-18 19:20N 40°48' W 073°59'7 9.4
2014-Oct-18 18:33N 40°41' W 074°02'4 3.3
2014-Oct-18 17:28N 40°45' W 074°01'0 0.0
2014-Oct-18 16:28N 40°45' W 074°01'0 0.0
2014-Oct-18 15:31N 40°45' W 074°01'0 0.0
2014-Oct-18 13:25N 40°45' W 074°01'0 0.0
2014-Oct-18 12:28N 40°45' W 074°01'0 0.0
2014-Oct-18 11:31N 40°45' W 074°01'0 0.0
2014-Oct-18 10:31N 40°45' W 074°01'0 0.0
2014-Oct-18 09:31N 40°45' W 074°01'0 0.0
2014-Oct-18 08:31N 40°45' W 074°01'0 0.0
2014-Oct-18 07:28N 40°45' W 074°01'0 0.0
2014-Oct-18 06:28N 40°45' W 074°01'0 0.0
2014-Oct-18 05:28N 40°45' W 074°01'0 0.0
2014-Oct-18 04:28N 40°45' W 074°01'0 0.0
2014-Oct-18 03:04N 40°45' W 074°01'0 0.0
2014-Oct-18 02:13N 40°45' W 074°01'0 0.0
2014-Oct-18 01:25N 40°45' W 074°01'0 0.0
2014-Oct-18 00:22N 40°45' W 074°01'0 0.0
2014-Oct-17 23:28N 40°45' W 074°01'0 0.0
2014-Oct-17 22:28N 40°45' W 074°01'0 0.0
2014-Oct-17 21:28N 40°45' W 074°01'0 0.0
2014-Oct-17 20:31N 40°45' W 074°01'0 0.0
2014-Oct-17 19:31N 40°45' W 074°01'0 0.0
2014-Oct-17 18:31N 40°45' W 074°01'0 0.0
2014-Oct-17 17:07N 40°45' W 074°01'0 0.0
2014-Oct-17 16:31N 40°45' W 074°01'  
2014-Oct-12 23:32N 41°14' W 073°57'23 0.8
2014-Oct-11 19:27N 40°50' W 073°57'8 8.6
2014-Oct-11 18:33N 40°43' W 074°01'2 1.5
2014-Oct-11 17:31N 40°45' W 074°01'0 0.0
2014-Oct-11 16:31N 40°45' W 074°01'0 0.0
2014-Oct-11 15:31N 40°45' W 074°01'0 0.0
2014-Oct-11 14:31N 40°45' W 074°01'0 0.0
2014-Oct-11 13:28N 40°45' W 074°01'0 0.0
2014-Oct-11 12:31N 40°45' W 074°01'0 0.0
2014-Oct-11 11:31N 40°45' W 074°01'0 0.0
2014-Oct-11 10:31N 40°45' W 074°01'0 0.0
2014-Oct-11 09:31N 40°45' W 074°01'0 0.0
2014-Oct-11 08:31N 40°45' W 074°01'0 0.0
2014-Oct-11 07:31N 40°45' W 074°01'0 0.0
2014-Oct-11 06:31N 40°45' W 074°01'0 0.0
2014-Oct-11 05:31N 40°45' W 074°01'0 0.0
2014-Oct-11 04:31N 40°45' W 074°01'0 0.0
2014-Oct-11 03:31N 40°45' W 074°01'0 0.0
2014-Oct-11 02:31N 40°45' W 074°01'0 0.0
2014-Oct-11 01:31N 40°45' W 074°01'0 0.0
2014-Oct-11 00:31N 40°45' W 074°01'0 0.0
2014-Oct-10 23:31N 40°45' W 074°01'0 0.0
2014-Oct-10 22:31N 40°45' W 074°01'3 3.1
2014-Oct-10 21:33N 40°42' W 074°00'2713.1
2014-Oct-10 19:28N 41°09' W 073°54'  

Dump ship's entire track history